sensor_id;sensor_type;location;lat;lon;timestamp;P1;durP1;ratioP1;P2;durP2;ratioP2
19575;SDS011;41589;51.196;7.074;2022-11-04T00:05:00;0.80;;;0.80;;
19575;SDS011;41589;51.196;7.074;2022-11-04T00:10:00;0.80;;;0.80;;
19575;SDS011;41589;51.196;7.074;2022-11-04T00:15:00;0.80;;;0.80;;
19575;SDS011;41589;51.196;7.074;2022-11-04T00:20:20;0.83;;;0.83;;
19575;SDS011;41589;51.196;7.074;2022-11-04T00:25:39;0.80;;;0.80;;
19575;SDS011;41589;51.196;7.074;2022-11-04T00:30:59;0.70;;;0.70;;
19575;SDS011;41589;51.196;7.074;2022-11-04T00:36:21;0.77;;;0.77;;
19575;SDS011;41589;51.196;7.074;2022-11-04T00:41:23;0.60;;;0.60;;
19575;SDS011;41589;51.196;7.074;2022-11-04T00:46:26;0.80;;;0.80;;
19575;SDS011;41589;51.196;7.074;2022-11-04T00:51:28;0.80;;;0.80;;
19575;SDS011;41589;51.196;7.074;2022-11-04T00:56:28;0.70;;;0.70;;
19575;SDS011;41589;51.196;7.074;2022-11-04T01:01:29;0.87;;;0.73;;
19575;SDS011;41589;51.196;7.074;2022-11-04T01:06:29;0.83;;;0.83;;
19575;SDS011;41589;51.196;7.074;2022-11-04T01:11:30;0.80;;;0.80;;
19575;SDS011;41589;51.196;7.074;2022-11-04T01:16:30;0.80;;;0.80;;
19575;SDS011;41589;51.196;7.074;2022-11-04T01:21:31;0.80;;;0.80;;
19575;SDS011;41589;51.196;7.074;2022-11-04T01:26:31;0.80;;;0.80;;
19575;SDS011;41589;51.196;7.074;2022-11-04T01:31:31;0.80;;;0.80;;
19575;SDS011;41589;51.196;7.074;2022-11-04T01:36:32;0.80;;;0.80;;
19575;SDS011;41589;51.196;7.074;2022-11-04T01:41:32;1.03;;;1.03;;
19575;SDS011;41589;51.196;7.074;2022-11-04T01:46:43;0.80;;;0.80;;
19575;SDS011;41589;51.196;7.074;2022-11-04T01:51:47;0.87;;;0.87;;
19575;SDS011;41589;51.196;7.074;2022-11-04T01:56:50;0.87;;;0.87;;
19575;SDS011;41589;51.196;7.074;2022-11-04T02:01:50;0.80;;;0.80;;
19575;SDS011;41589;51.196;7.074;2022-11-04T02:06:56;0.80;;;0.80;;
19575;SDS011;41589;51.196;7.074;2022-11-04T02:11:58;0.77;;;0.77;;
19575;SDS011;41589;51.196;7.074;2022-11-04T02:22:26;0.73;;;0.73;;
19575;SDS011;41589;51.196;7.074;2022-11-04T02:27:52;0.80;;;0.80;;
19575;SDS011;41589;51.196;7.074;2022-11-04T02:54:11;1.10;;;1.00;;
19575;SDS011;41589;51.196;7.074;2022-11-04T02:59:22;0.80;;;0.80;;
19575;SDS011;41589;51.196;7.074;2022-11-04T03:04:31;0.80;;;0.80;;
19575;SDS011;41589;51.196;7.074;2022-11-04T03:09:38;1.00;;;1.00;;
19575;SDS011;41589;51.196;7.074;2022-11-04T03:14:43;0.97;;;0.90;;
19575;SDS011;41589;51.196;7.074;2022-11-04T03:19:55;1.93;;;0.83;;
19575;SDS011;41589;51.196;7.074;2022-11-04T03:24:57;1.10;;;1.00;;
19575;SDS011;41589;51.196;7.074;2022-11-04T03:30:04;0.90;;;0.90;;
19575;SDS011;41589;51.196;7.074;2022-11-04T03:35:07;1.50;;;1.40;;
19575;SDS011;41589;51.196;7.074;2022-11-04T03:40:10;1.50;;;1.23;;
19575;SDS011;41589;51.196;7.074;2022-11-04T03:45:11;0.97;;;0.90;;
19575;SDS011;41589;51.196;7.074;2022-11-04T03:50:29;1.20;;;1.10;;
19575;SDS011;41589;51.196;7.074;2022-11-04T04:01:06;0.90;;;0.90;;
19575;SDS011;41589;51.196;7.074;2022-11-04T04:06:23;0.90;;;0.90;;
19575;SDS011;41589;51.196;7.074;2022-11-04T04:11:44;0.97;;;0.97;;
19575;SDS011;41589;51.196;7.074;2022-11-04T04:16:51;1.20;;;1.10;;
19575;SDS011;41589;51.196;7.074;2022-11-04T04:22:16;0.87;;;0.87;;
19575;SDS011;41589;51.196;7.074;2022-11-04T04:27:17;0.97;;;0.97;;
19575;SDS011;41589;51.196;7.074;2022-11-04T04:32:33;0.90;;;0.90;;
19575;SDS011;41589;51.196;7.074;2022-11-04T04:37:39;0.80;;;0.80;;
19575;SDS011;41589;51.196;7.074;2022-11-04T04:42:41;1.10;;;1.00;;
19575;SDS011;41589;51.196;7.074;2022-11-04T04:48:00;1.10;;;1.00;;
19575;SDS011;41589;51.196;7.074;2022-11-04T04:53:00;1.23;;;1.10;;
19575;SDS011;41589;51.196;7.074;2022-11-04T04:58:03;1.27;;;1.17;;
19575;SDS011;41589;51.196;7.074;2022-11-04T05:03:03;0.90;;;0.90;;
19575;SDS011;41589;51.196;7.074;2022-11-04T05:08:04;1.00;;;1.00;;
19575;SDS011;41589;51.196;7.074;2022-11-04T05:13:06;1.00;;;1.00;;
19575;SDS011;41589;51.196;7.074;2022-11-04T05:18:27;0.90;;;0.90;;
19575;SDS011;41589;51.196;7.074;2022-11-04T05:23:27;1.10;;;1.10;;
19575;SDS011;41589;51.196;7.074;2022-11-04T05:28:28;1.30;;;1.20;;
19575;SDS011;41589;51.196;7.074;2022-11-04T05:33:28;1.03;;;1.00;;
19575;SDS011;41589;51.196;7.074;2022-11-04T05:38:29;1.23;;;1.13;;
19575;SDS011;41589;51.196;7.074;2022-11-04T05:43:30;0.97;;;0.97;;
19575;SDS011;41589;51.196;7.074;2022-11-04T05:48:30;1.00;;;1.00;;
19575;SDS011;41589;51.196;7.074;2022-11-04T05:53:31;1.00;;;1.00;;
19575;SDS011;41589;51.196;7.074;2022-11-04T05:58:31;1.07;;;1.03;;
19575;SDS011;41589;51.196;7.074;2022-11-04T06:03:32;1.00;;;1.00;;
19575;SDS011;41589;51.196;7.074;2022-11-04T06:08:32;1.00;;;1.00;;
19575;SDS011;41589;51.196;7.074;2022-11-04T06:13:32;0.90;;;0.90;;
19575;SDS011;41589;51.196;7.074;2022-11-04T06:18:33;1.10;;;1.00;;
19575;SDS011;41589;51.196;7.074;2022-11-04T06:23:33;1.07;;;1.07;;
19575;SDS011;41589;51.196;7.074;2022-11-04T06:28:34;1.00;;;1.00;;
19575;SDS011;41589;51.196;7.074;2022-11-04T06:33:35;1.53;;;1.43;;
19575;SDS011;41589;51.196;7.074;2022-11-04T06:38:36;1.37;;;1.27;;
19575;SDS011;41589;51.196;7.074;2022-11-04T06:43:37;0.90;;;0.90;;
19575;SDS011;41589;51.196;7.074;2022-11-04T06:48:37;1.20;;;1.10;;
19575;SDS011;41589;51.196;7.074;2022-11-04T06:53:38;1.00;;;1.00;;
19575;SDS011;41589;51.196;7.074;2022-11-04T06:58:38;1.87;;;1.10;;
19575;SDS011;41589;51.196;7.074;2022-11-04T07:03:39;1.10;;;1.10;;
19575;SDS011;41589;51.196;7.074;2022-11-04T07:08:39;1.10;;;1.10;;
19575;SDS011;41589;51.196;7.074;2022-11-04T07:13:40;1.13;;;1.10;;
19575;SDS011;41589;51.196;7.074;2022-11-04T07:18:40;1.57;;;1.30;;
19575;SDS011;41589;51.196;7.074;2022-11-04T07:23:40;1.37;;;1.27;;
19575;SDS011;41589;51.196;7.074;2022-11-04T07:28:41;0.90;;;0.90;;
19575;SDS011;41589;51.196;7.074;2022-11-04T07:33:41;1.03;;;1.03;;
19575;SDS011;41589;51.196;7.074;2022-11-04T07:38:42;1.20;;;1.10;;
19575;SDS011;41589;51.196;7.074;2022-11-04T07:43:46;0.87;;;0.87;;
19575;SDS011;41589;51.196;7.074;2022-11-04T07:48:48;1.00;;;1.00;;
19575;SDS011;41589;51.196;7.074;2022-11-04T07:53:48;1.20;;;1.10;;
19575;SDS011;41589;51.196;7.074;2022-11-04T07:58:49;0.83;;;0.83;;
19575;SDS011;41589;51.196;7.074;2022-11-04T08:03:50;1.07;;;0.97;;
19575;SDS011;41589;51.196;7.074;2022-11-04T08:08:51;0.70;;;0.70;;
19575;SDS011;41589;51.196;7.074;2022-11-04T08:13:53;1.10;;;1.10;;
19575;SDS011;41589;51.196;7.074;2022-11-04T08:18:55;0.90;;;0.90;;
19575;SDS011;41589;51.196;7.074;2022-11-04T08:24:00;1.10;;;1.10;;
19575;SDS011;41589;51.196;7.074;2022-11-04T08:29:05;1.10;;;1.00;;
19575;SDS011;41589;51.196;7.074;2022-11-04T08:34:07;1.00;;;1.00;;
19575;SDS011;41589;51.196;7.074;2022-11-04T08:39:07;1.03;;;1.03;;
19575;SDS011;41589;51.196;7.074;2022-11-04T08:44:09;0.90;;;0.90;;
19575;SDS011;41589;51.196;7.074;2022-11-04T08:49:09;0.90;;;0.90;;
19575;SDS011;41589;51.196;7.074;2022-11-04T08:54:10;1.20;;;1.10;;
19575;SDS011;41589;51.196;7.074;2022-11-04T08:59:11;1.07;;;1.07;;
19575;SDS011;41589;51.196;7.074;2022-11-04T09:04:11;0.80;;;0.80;;
19575;SDS011;41589;51.196;7.074;2022-11-04T09:09:13;0.80;;;0.80;;
19575;SDS011;41589;51.196;7.074;2022-11-04T09:14:15;1.20;;;1.10;;
19575;SDS011;41589;51.196;7.074;2022-11-04T09:19:16;1.13;;;1.03;;
19575;SDS011;41589;51.196;7.074;2022-11-04T09:24:17;1.10;;;1.00;;
19575;SDS011;41589;51.196;7.074;2022-11-04T09:29:17;1.03;;;1.03;;
19575;SDS011;41589;51.196;7.074;2022-11-04T09:34:18;0.80;;;0.80;;
19575;SDS011;41589;51.196;7.074;2022-11-04T09:39:18;1.00;;;1.00;;
19575;SDS011;41589;51.196;7.074;2022-11-04T09:44:25;1.00;;;1.00;;
19575;SDS011;41589;51.196;7.074;2022-11-04T09:49:33;1.00;;;1.00;;
19575;SDS011;41589;51.196;7.074;2022-11-04T09:54:41;0.80;;;0.80;;
19575;SDS011;41589;51.196;7.074;2022-11-04T09:59:43;0.93;;;0.90;;
19575;SDS011;41589;51.196;7.074;2022-11-04T10:10:22;1.07;;;0.90;;
19575;SDS011;41589;51.196;7.074;2022-11-04T10:26:13;1.47;;;0.90;;
19575;SDS011;41589;51.196;7.074;2022-11-04T10:31:23;1.40;;;1.30;;
19575;SDS011;41589;51.196;7.074;2022-11-04T10:36:24;0.90;;;0.90;;
19575;SDS011;41589;51.196;7.074;2022-11-04T10:41:27;0.90;;;0.90;;
19575;SDS011;41589;51.196;7.074;2022-11-04T10:51:50;0.80;;;0.80;;
19575;SDS011;41589;51.196;7.074;2022-11-04T10:56:52;0.90;;;0.90;;
19575;SDS011;41589;51.196;7.074;2022-11-04T11:01:55;1.07;;;1.07;;
19575;SDS011;41589;51.196;7.074;2022-11-04T11:07:00;0.90;;;0.90;;
19575;SDS011;41589;51.196;7.074;2022-11-04T11:12:16;0.77;;;0.77;;
19575;SDS011;41589;51.196;7.074;2022-11-04T11:22:37;0.83;;;0.83;;
19575;SDS011;41589;51.196;7.074;2022-11-04T11:27:40;0.83;;;0.83;;
19575;SDS011;41589;51.196;7.074;2022-11-04T11:32:52;0.90;;;0.90;;
19575;SDS011;41589;51.196;7.074;2022-11-04T11:38:02;1.10;;;1.00;;
19575;SDS011;41589;51.196;7.074;2022-11-04T11:43:05;1.37;;;1.20;;
19575;SDS011;41589;51.196;7.074;2022-11-04T11:48:25;0.73;;;0.73;;
19575;SDS011;41589;51.196;7.074;2022-11-04T11:53:57;0.70;;;0.70;;
19575;SDS011;41589;51.196;7.074;2022-11-04T12:04:27;1.07;;;1.07;;
19575;SDS011;41589;51.196;7.074;2022-11-04T12:09:29;1.20;;;1.10;;
19575;SDS011;41589;51.196;7.074;2022-11-04T12:15:07;1.10;;;1.00;;
19575;SDS011;41589;51.196;7.074;2022-11-04T12:20:27;0.90;;;0.90;;
19575;SDS011;41589;51.196;7.074;2022-11-04T12:41:36;0.90;;;0.90;;
19575;SDS011;41589;51.196;7.074;2022-11-04T12:57:49;0.90;;;0.90;;
19575;SDS011;41589;51.196;7.074;2022-11-04T13:03:15;0.90;;;0.90;;
19575;SDS011;41589;51.196;7.074;2022-11-04T13:08:42;1.20;;;1.10;;
19575;SDS011;41589;51.196;7.074;2022-11-04T13:19:09;0.90;;;0.90;;
19575;SDS011;41589;51.196;7.074;2022-11-04T13:24:29;0.90;;;0.90;;
19575;SDS011;41589;51.196;7.074;2022-11-04T13:29:34;0.80;;;0.80;;
19575;SDS011;41589;51.196;7.074;2022-11-04T13:35:19;0.90;;;0.90;;
19575;SDS011;41589;51.196;7.074;2022-11-04T13:40:02;0.97;;;0.97;;
19575;SDS011;41589;51.196;7.074;2022-11-04T13:45:19;0.80;;;0.80;;
19575;SDS011;41589;51.196;7.074;2022-11-04T13:50:36;0.80;;;0.80;;
19575;SDS011;41589;51.196;7.074;2022-11-04T13:55:47;0.90;;;0.90;;
19575;SDS011;41589;51.196;7.074;2022-11-04T14:27:42;0.87;;;0.87;;
19575;SDS011;41589;51.196;7.074;2022-11-04T14:32:43;1.00;;;1.00;;
19575;SDS011;41589;51.196;7.074;2022-11-04T14:37:43;1.10;;;1.10;;
19575;SDS011;41589;51.196;7.074;2022-11-04T14:42:52;0.90;;;0.90;;
19575;SDS011;41589;51.196;7.074;2022-11-04T14:47:59;1.27;;;1.17;;
19575;SDS011;41589;51.196;7.074;2022-11-04T14:53:13;0.87;;;0.87;;
19575;SDS011;41589;51.196;7.074;2022-11-04T14:58:21;1.10;;;1.10;;
19575;SDS011;41589;51.196;7.074;2022-11-04T15:03:24;1.20;;;1.20;;
19575;SDS011;41589;51.196;7.074;2022-11-04T15:13:32;1.40;;;1.20;;
19575;SDS011;41589;51.196;7.074;2022-11-04T15:18:35;1.00;;;1.00;;
19575;SDS011;41589;51.196;7.074;2022-11-04T15:23:39;1.50;;;1.07;;
19575;SDS011;41589;51.196;7.074;2022-11-04T15:28:44;1.10;;;1.10;;
19575;SDS011;41589;51.196;7.074;2022-11-04T15:33:52;1.17;;;1.10;;
19575;SDS011;41589;51.196;7.074;2022-11-04T15:39:02;1.50;;;1.40;;
19575;SDS011;41589;51.196;7.074;2022-11-04T15:44:22;1.20;;;1.00;;
19575;SDS011;41589;51.196;7.074;2022-11-04T15:49:26;1.20;;;1.10;;
19575;SDS011;41589;51.196;7.074;2022-11-04T15:54:29;1.20;;;1.13;;
19575;SDS011;41589;51.196;7.074;2022-11-04T15:59:34;1.40;;;1.30;;
19575;SDS011;41589;51.196;7.074;2022-11-04T16:04:36;1.07;;;1.07;;
19575;SDS011;41589;51.196;7.074;2022-11-04T16:09:47;1.20;;;1.10;;
19575;SDS011;41589;51.196;7.074;2022-11-04T16:14:50;1.27;;;1.27;;
19575;SDS011;41589;51.196;7.074;2022-11-04T16:19:54;1.00;;;0.97;;
19575;SDS011;41589;51.196;7.074;2022-11-04T16:24:58;0.90;;;0.90;;
19575;SDS011;41589;51.196;7.074;2022-11-04T16:30:02;0.90;;;0.90;;
19575;SDS011;41589;51.196;7.074;2022-11-04T16:35:07;0.80;;;0.80;;
19575;SDS011;41589;51.196;7.074;2022-11-04T16:40:13;1.07;;;1.07;;
19575;SDS011;41589;51.196;7.074;2022-11-04T16:50:24;1.00;;;1.00;;
19575;SDS011;41589;51.196;7.074;2022-11-04T16:55:25;1.07;;;1.07;;
19575;SDS011;41589;51.196;7.074;2022-11-04T17:00:26;1.00;;;1.00;;
19575;SDS011;41589;51.196;7.074;2022-11-04T17:05:27;1.20;;;1.20;;
19575;SDS011;41589;51.196;7.074;2022-11-04T17:10:28;1.30;;;1.30;;
19575;SDS011;41589;51.196;7.074;2022-11-04T17:15:29;1.70;;;1.63;;
19575;SDS011;41589;51.196;7.074;2022-11-04T17:20:29;2.00;;;1.90;;
19575;SDS011;41589;51.196;7.074;2022-11-04T17:25:31;1.70;;;1.60;;
19575;SDS011;41589;51.196;7.074;2022-11-04T17:30:31;1.50;;;1.40;;
19575;SDS011;41589;51.196;7.074;2022-11-04T17:35:32;1.50;;;1.40;;
19575;SDS011;41589;51.196;7.074;2022-11-04T17:40:34;1.10;;;1.10;;
19575;SDS011;41589;51.196;7.074;2022-11-04T17:45:54;1.50;;;1.40;;
19575;SDS011;41589;51.196;7.074;2022-11-04T17:51:14;1.60;;;1.50;;
19575;SDS011;41589;51.196;7.074;2022-11-04T17:56:15;1.43;;;1.43;;
19575;SDS011;41589;51.196;7.074;2022-11-04T18:01:18;1.27;;;1.27;;
19575;SDS011;41589;51.196;7.074;2022-11-04T18:06:20;1.90;;;1.80;;
19575;SDS011;41589;51.196;7.074;2022-11-04T18:11:22;1.63;;;1.53;;
19575;SDS011;41589;51.196;7.074;2022-11-04T18:16:44;1.47;;;1.37;;
19575;SDS011;41589;51.196;7.074;2022-11-04T18:21:46;1.30;;;1.30;;
19575;SDS011;41589;51.196;7.074;2022-11-04T18:26:47;1.97;;;1.87;;
19575;SDS011;41589;51.196;7.074;2022-11-04T18:31:47;1.87;;;1.77;;
19575;SDS011;41589;51.196;7.074;2022-11-04T18:36:48;2.33;;;2.23;;
19575;SDS011;41589;51.196;7.074;2022-11-04T18:41:49;1.87;;;1.77;;
19575;SDS011;41589;51.196;7.074;2022-11-04T18:46:49;2.07;;;1.97;;
19575;SDS011;41589;51.196;7.074;2022-11-04T18:51:49;1.90;;;1.80;;
19575;SDS011;41589;51.196;7.074;2022-11-04T18:56:50;1.60;;;1.50;;
19575;SDS011;41589;51.196;7.074;2022-11-04T19:01:50;1.73;;;1.63;;
19575;SDS011;41589;51.196;7.074;2022-11-04T19:06:52;1.53;;;1.43;;
19575;SDS011;41589;51.196;7.074;2022-11-04T19:11:52;1.30;;;1.30;;
19575;SDS011;41589;51.196;7.074;2022-11-04T19:17:12;1.50;;;1.50;;
19575;SDS011;41589;51.196;7.074;2022-11-04T19:22:13;2.00;;;1.90;;
19575;SDS011;41589;51.196;7.074;2022-11-04T19:27:13;2.30;;;2.20;;
19575;SDS011;41589;51.196;7.074;2022-11-04T19:32:16;2.30;;;2.10;;
19575;SDS011;41589;51.196;7.074;2022-11-04T19:37:17;2.20;;;2.00;;
19575;SDS011;41589;51.196;7.074;2022-11-04T19:42:17;2.00;;;1.90;;
19575;SDS011;41589;51.196;7.074;2022-11-04T19:47:36;2.97;;;2.00;;
19575;SDS011;41589;51.196;7.074;2022-11-04T19:52:37;2.00;;;1.90;;
19575;SDS011;41589;51.196;7.074;2022-11-04T19:57:37;2.60;;;2.47;;
19575;SDS011;41589;51.196;7.074;2022-11-04T20:02:38;2.20;;;2.10;;
19575;SDS011;41589;51.196;7.074;2022-11-04T20:07:38;3.93;;;3.63;;
19575;SDS011;41589;51.196;7.074;2022-11-04T20:12:39;3.17;;;2.97;;
19575;SDS011;41589;51.196;7.074;2022-11-04T20:17:58;2.53;;;2.33;;
19575;SDS011;41589;51.196;7.074;2022-11-04T20:22:59;2.40;;;2.20;;
19575;SDS011;41589;51.196;7.074;2022-11-04T20:28:02;2.70;;;2.50;;
19575;SDS011;41589;51.196;7.074;2022-11-04T20:33:03;2.27;;;2.10;;
19575;SDS011;41589;51.196;7.074;2022-11-04T20:38:03;2.87;;;2.70;;
19575;SDS011;41589;51.196;7.074;2022-11-04T20:43:04;2.60;;;2.50;;
19575;SDS011;41589;51.196;7.074;2022-11-04T20:48:04;2.60;;;2.50;;
19575;SDS011;41589;51.196;7.074;2022-11-04T20:53:05;2.93;;;2.73;;
19575;SDS011;41589;51.196;7.074;2022-11-04T20:58:05;2.83;;;2.63;;
19575;SDS011;41589;51.196;7.074;2022-11-04T21:03:05;2.90;;;2.70;;
19575;SDS011;41589;51.196;7.074;2022-11-04T21:08:06;3.20;;;3.00;;
19575;SDS011;41589;51.196;7.074;2022-11-04T21:13:06;3.20;;;3.10;;
19575;SDS011;41589;51.196;7.074;2022-11-04T21:18:07;3.03;;;2.83;;
19575;SDS011;41589;51.196;7.074;2022-11-04T21:23:22;2.70;;;2.60;;
19575;SDS011;41589;51.196;7.074;2022-11-04T21:28:30;2.97;;;2.80;;
19575;SDS011;41589;51.196;7.074;2022-11-04T21:33:30;2.90;;;2.70;;
19575;SDS011;41589;51.196;7.074;2022-11-04T21:38:31;2.83;;;2.73;;
19575;SDS011;41589;51.196;7.074;2022-11-04T21:43:31;2.90;;;2.70;;
19575;SDS011;41589;51.196;7.074;2022-11-04T21:48:32;2.80;;;2.60;;
19575;SDS011;41589;51.196;7.074;2022-11-04T21:53:33;2.70;;;2.60;;
19575;SDS011;41589;51.196;7.074;2022-11-04T21:58:34;2.57;;;2.47;;
19575;SDS011;41589;51.196;7.074;2022-11-04T22:03:35;2.70;;;2.57;;
19575;SDS011;41589;51.196;7.074;2022-11-04T22:08:37;3.07;;;2.87;;
19575;SDS011;41589;51.196;7.074;2022-11-04T22:13:38;2.83;;;2.73;;
19575;SDS011;41589;51.196;7.074;2022-11-04T22:18:38;3.13;;;2.93;;
19575;SDS011;41589;51.196;7.074;2022-11-04T22:23:39;2.80;;;2.70;;
19575;SDS011;41589;51.196;7.074;2022-11-04T22:28:40;2.60;;;2.40;;
19575;SDS011;41589;51.196;7.074;2022-11-04T22:33:41;2.50;;;2.40;;
19575;SDS011;41589;51.196;7.074;2022-11-04T22:38:41;2.33;;;2.23;;
19575;SDS011;41589;51.196;7.074;2022-11-04T22:43:42;2.87;;;2.60;;
19575;SDS011;41589;51.196;7.074;2022-11-04T22:48:42;2.60;;;2.50;;
19575;SDS011;41589;51.196;7.074;2022-11-04T22:53:43;2.53;;;2.43;;
19575;SDS011;41589;51.196;7.074;2022-11-04T22:58:43;2.83;;;2.47;;
19575;SDS011;41589;51.196;7.074;2022-11-04T23:03:44;2.27;;;2.17;;
19575;SDS011;41589;51.196;7.074;2022-11-04T23:08:44;2.27;;;2.17;;
19575;SDS011;41589;51.196;7.074;2022-11-04T23:13:54;2.40;;;2.30;;
19575;SDS011;41589;51.196;7.074;2022-11-04T23:19:15;2.40;;;2.30;;
19575;SDS011;41589;51.196;7.074;2022-11-04T23:24:15;2.03;;;1.93;;
19575;SDS011;41589;51.196;7.074;2022-11-04T23:29:44;2.20;;;2.10;;
19575;SDS011;41589;51.196;7.074;2022-11-04T23:35:03;2.43;;;2.23;;
19575;SDS011;41589;51.196;7.074;2022-11-04T23:40:23;2.47;;;2.37;;
19575;SDS011;41589;51.196;7.074;2022-11-04T23:45:24;2.30;;;2.20;;
19575;SDS011;41589;51.196;7.074;2022-11-04T23:50:43;1.83;;;1.73;;
19575;SDS011;41589;51.196;7.074;2022-11-04T23:56:02;2.40;;;2.30;;
